Time;durP1;ratioP1;P1;durP2;ratioP2;P2;SDS_P1;SDS_P2;PMS_P1;PMS_P2;Temp;Humidity;BMP_temperature;BMP_pressure;BME280_temperature;BME280_humidity;BME280_pressure;Samples;Min_cycle;Max_cycle;Signal;HPM_P1;HPM_P2
2022/07/21 00:01:58;;;;;;;16.55;11.65;;;;;;;;;;5043846;28;20432;-80
2022/07/21 00:04:24;;;;;;;15.70;11.00;;;;;;;;;;5042437;28;20428;-80
2022/07/21 00:06:50;;;;;;;15.45;11.65;;;;;;;;;;5045149;28;20430;-82
2022/07/21 00:09:17;;;;;;;16.13;11.48;;;;;;;;;;5048996;28;20782;-88
2022/07/21 00:11:44;;;;;;;16.38;10.45;;;;;;;;;;5048348;28;20434;-80
2022/07/21 00:14:11;;;;;;;14.77;10.70;;;;;;;;;;5048631;28;20486;-80
2022/07/21 00:16:39;;;;;;;14.60;10.10;;;;;;;;;;5045376;28;20424;-81
2022/07/21 00:19:06;;;;;;;14.32;10.80;;;;;;;;;;5045828;28;20841;-83
2022/07/21 00:21:32;;;;;;;17.30;11.40;;;;;;;;;;5048355;28;20436;-80
2022/07/21 00:23:58;;;;;;;13.20;9.77;;;;;;;;;;5049471;28;20433;-80
2022/07/21 00:26:25;;;;;;;12.57;9.00;;;;;;;;;;5045232;28;20441;-80
2022/07/21 00:28:51;;;;;;;14.77;9.10;;;;;;;;;;5044403;28;20432;-80
2022/07/21 00:31:17;;;;;;;14.65;9.65;;;;;;;;;;5046475;28;20423;-82
2022/07/21 00:33:45;;;;;;;13.18;9.00;;;;;;;;;;5044111;28;20435;-82
2022/07/21 00:36:12;;;;;;;15.13;8.52;;;;;;;;;;5044448;28;20426;-84
2022/07/21 00:38:39;;;;;;;12.63;8.95;;;;;;;;;;5045585;28;20433;-80
2022/07/21 00:41:05;;;;;;;12.80;8.27;;;;;;;;;;5046724;28;20413;-79
2022/07/21 00:43:32;;;;;;;15.07;8.77;;;;;;;;;;5048133;28;20430;-83
2022/07/21 00:45:58;;;;;;;15.13;9.27;;;;;;;;;;5045694;28;20492;-83
2022/07/21 00:48:24;;;;;;;13.93;9.70;;;;;;;;;;5046021;28;20430;-80
2022/07/21 00:50:52;;;;;;;11.35;10.00;;;;;;;;;;5046525;28;20437;-79
2022/07/21 00:53:19;;;;;;;13.05;10.00;;;;;;;;;;5047965;28;20437;-80
2022/07/21 00:55:46;;;;;;;16.00;11.20;;;;;;;;;;5047535;28;20800;-80
2022/07/21 00:58:12;;;;;;;13.70;10.70;;;;;;;;;;5046473;28;20435;-81
2022/07/21 01:00:39;;;;;;;15.98;11.00;;;;;;;;;;5045701;28;20427;-80
2022/07/21 01:03:05;;;;;;;14.05;9.90;;;;;;;;;;5046533;28;20796;-80
2022/07/21 01:05:32;;;;;;;16.80;11.00;;;;;;;;;;5048451;28;20428;-80
2022/07/21 01:08:02;;;;;;;12.52;11.00;;;;;;;;;;5044936;28;20431;-90
2022/07/21 01:10:28;;;;;;;13.02;10.80;;;;;;;;;;5050415;28;20463;-85
2022/07/21 01:12:55;;;;;;;13.95;10.30;;;;;;;;;;5046237;28;20425;-81
2022/07/21 01:15:22;;;;;;;17.30;10.80;;;;;;;;;;5043626;28;20425;-80
2022/07/21 01:17:49;;;;;;;16.65;11.02;;;;;;;;;;5046519;28;20435;-81
2022/07/21 01:20:17;;;;;;;17.55;10.23;;;;;;;;;;5047729;28;21015;-80
2022/07/21 01:22:45;;;;;;;14.93;9.98;;;;;;;;;;5048617;28;20429;-79
2022/07/21 01:25:12;;;;;;;13.10;10.23;;;;;;;;;;5041974;28;20424;-80
2022/07/21 01:27:39;;;;;;;12.60;10.00;;;;;;;;;;5045447;28;20668;-82
2022/07/21 01:30:07;;;;;;;13.80;10.48;;;;;;;;;;5048571;28;20426;-80
2022/07/21 01:32:34;;;;;;;13.32;9.93;;;;;;;;;;5045831;28;20462;-80
2022/07/21 01:35:00;;;;;;;15.02;10.30;;;;;;;;;;5048855;28;20509;-80
2022/07/21 01:37:28;;;;;;;9.83;8.70;;;;;;;;;;5045723;28;20434;-80
2022/07/21 01:42:40;;;;;;;11.65;8.52;;;;;;;;;;5045844;28;20421;-81
2022/07/21 01:45:07;;;;;;;9.40;8.10;;;;;;;;;;5046249;28;20421;-80
2022/07/21 01:47:34;;;;;;;10.35;7.68;;;;;;;;;;5048063;28;20430;-80
2022/07/21 01:50:01;;;;;;;10.00;7.20;;;;;;;;;;5042566;28;20413;-83
2022/07/21 01:52:27;;;;;;;10.75;7.20;;;;;;;;;;5043027;28;20433;-83
2022/07/21 01:54:54;;;;;;;10.02;6.60;;;;;;;;;;5046859;28;20413;-83
2022/07/21 01:57:21;;;;;;;9.00;6.90;;;;;;;;;;5045053;28;20441;-81
2022/07/21 01:59:48;;;;;;;8.30;6.10;;;;;;;;;;5043579;28;20437;-80
2022/07/21 02:02:14;;;;;;;8.80;6.50;;;;;;;;;;5046659;28;20431;-80
2022/07/21 02:04:41;;;;;;;8.63;5.85;;;;;;;;;;5046640;28;20796;-80
2022/07/21 02:07:07;;;;;;;7.03;6.03;;;;;;;;;;5046145;28;20439;-80
2022/07/21 02:09:33;;;;;;;7.65;5.40;;;;;;;;;;5046185;28;20411;-80
2022/07/21 02:12:00;;;;;;;7.53;5.60;;;;;;;;;;5047274;28;20458;-83
2022/07/21 02:14:27;;;;;;;7.95;5.00;;;;;;;;;;5041278;28;20413;-81
2022/07/21 02:16:54;;;;;;;6.15;5.25;;;;;;;;;;5045548;28;20419;-80
2022/07/21 02:19:20;;;;;;;8.07;5.45;;;;;;;;;;5048988;28;20514;-89
2022/07/21 02:21:46;;;;;;;8.82;5.68;;;;;;;;;;5045315;28;20429;-80
2022/07/21 02:24:13;;;;;;;7.05;4.90;;;;;;;;;;5041377;28;20445;-80
2022/07/21 02:26:39;;;;;;;7.45;5.40;;;;;;;;;;5049141;28;20759;-79
2022/07/21 02:29:05;;;;;;;7.75;5.47;;;;;;;;;;5042649;28;20941;-83
2022/07/21 02:31:33;;;;;;;7.32;5.53;;;;;;;;;;5046460;28;20445;-79
2022/07/21 02:33:59;;;;;;;8.05;5.50;;;;;;;;;;5044408;28;20429;-79
2022/07/21 02:36:27;;;;;;;6.20;5.60;;;;;;;;;;5045679;28;20814;-80
2022/07/21 02:38:53;;;;;;;8.10;5.30;;;;;;;;;;5045342;28;20435;-80
2022/07/21 02:41:19;;;;;;;6.30;5.65;;;;;;;;;;5044984;28;20433;-81
2022/07/21 02:43:46;;;;;;;7.35;5.35;;;;;;;;;;5048010;28;20432;-80
2022/07/21 02:46:12;;;;;;;6.10;5.50;;;;;;;;;;5044607;28;20422;-81
2022/07/21 02:48:40;;;;;;;5.90;5.30;;;;;;;;;;5046446;28;20453;-81
2022/07/21 02:51:06;;;;;;;7.65;4.90;;;;;;;;;;5047591;28;20422;-87
2022/07/21 02:53:32;;;;;;;8.70;5.60;;;;;;;;;;5048065;28;20432;-79
2022/07/21 02:55:59;;;;;;;7.25;5.57;;;;;;;;;;5044955;28;20441;-82
2022/07/21 02:58:26;;;;;;;7.70;5.70;;;;;;;;;;5047691;28;20429;-82
2022/07/21 03:00:53;;;;;;;6.30;5.60;;;;;;;;;;5046010;28;21243;-80
2022/07/21 03:03:20;;;;;;;6.45;5.78;;;;;;;;;;5047026;28;20433;-81
2022/07/21 03:05:50;;;;;;;9.45;5.80;;;;;;;;;;5046047;28;20431;-79
2022/07/21 03:08:16;;;;;;;7.00;5.53;;;;;;;;;;5040815;28;20442;-81
2022/07/21 03:10:43;;;;;;;7.18;5.22;;;;;;;;;;5048424;28;20425;-84
2022/07/21 03:13:09;;;;;;;7.67;5.43;;;;;;;;;;5050538;28;20450;-85
2022/07/21 03:15:36;;;;;;;9.13;6.18;;;;;;;;;;5052408;28;20424;-80
2022/07/21 03:18:02;;;;;;;7.00;5.60;;;;;;;;;;5049527;28;20564;-83
2022/07/21 03:20:30;;;;;;;6.90;5.50;;;;;;;;;;5052958;28;20434;-81
2022/07/21 03:22:57;;;;;;;8.70;6.40;;;;;;;;;;5052897;28;20427;-86
2022/07/21 03:25:25;;;;;;;10.23;7.05;;;;;;;;;;5054044;28;20802;-83
2022/07/21 03:27:52;;;;;;;9.37;7.20;;;;;;;;;;5053841;28;20428;-81
2022/07/21 03:30:18;;;;;;;9.80;7.43;;;;;;;;;;5052959;28;20424;-80
2022/07/21 03:32:44;;;;;;;9.38;7.00;;;;;;;;;;5047837;28;20434;-79
2022/07/21 03:35:12;;;;;;;9.85;8.10;;;;;;;;;;5045254;28;20409;-80
2022/07/21 03:37:42;;;;;;;9.02;7.55;;;;;;;;;;5046982;28;20425;-86
2022/07/21 03:40:11;;;;;;;8.35;7.55;;;;;;;;;;5044410;28;20425;-82
2022/07/21 03:42:37;;;;;;;11.18;7.70;;;;;;;;;;5044595;28;20440;-79
2022/07/21 03:45:04;;;;;;;11.20;8.10;;;;;;;;;;5046123;28;20448;-79
2022/07/21 03:47:30;;;;;;;12.68;9.02;;;;;;;;;;5046325;28;20438;-84
2022/07/21 03:49:57;;;;;;;10.00;8.80;;;;;;;;;;5093490;22;20436;-82
2022/07/21 03:52:23;;;;;;;10.93;9.20;;;;;;;;;;5059424;28;20456;-79
2022/07/21 03:54:50;;;;;;;14.38;9.70;;;;;;;;;;5059313;28;20417;-80
2022/07/21 03:57:19;;;;;;;13.75;9.63;;;;;;;;;;5058886;28;20436;-80
2022/07/21 03:59:45;;;;;;;10.30;9.20;;;;;;;;;;5061624;28;20420;-81
2022/07/21 04:02:11;;;;;;;13.30;9.60;;;;;;;;;;5040797;28;20896;-79
2022/07/21 04:04:38;;;;;;;12.88;10.70;;;;;;;;;;5039659;28;20427;-80
2022/07/21 04:07:04;;;;;;;11.25;9.85;;;;;;;;;;5041834;28;20802;-80
2022/07/21 04:09:32;;;;;;;11.38;9.52;;;;;;;;;;5043614;28;20431;-80
2022/07/21 04:11:58;;;;;;;14.10;10.63;;;;;;;;;;5044461;28;20431;-80
2022/07/21 04:14:26;;;;;;;10.17;8.97;;;;;;;;;;5041838;28;20417;-79
2022/07/21 04:16:52;;;;;;;12.38;9.75;;;;;;;;;;5043103;28;20434;-79
2022/07/21 04:19:20;;;;;;;11.48;9.90;;;;;;;;;;5038102;28;20428;-79
2022/07/21 04:21:46;;;;;;;10.95;9.75;;;;;;;;;;5029492;28;20429;-81
2022/07/21 04:24:12;;;;;;;12.68;9.95;;;;;;;;;;5036821;28;20431;-80
2022/07/21 04:26:40;;;;;;;15.35;10.88;;;;;;;;;;5035284;28;20441;-81
2022/07/21 04:29:07;;;;;;;13.50;9.90;;;;;;;;;;5035843;28;20442;-81
2022/07/21 04:31:35;;;;;;;12.03;10.70;;;;;;;;;;5034231;28;20437;-82
2022/07/21 04:34:04;;;;;;;12.07;10.38;;;;;;;;;;5032513;28;20794;-81
2022/07/21 04:36:30;;;;;;;15.10;12.35;;;;;;;;;;5039212;28;20413;-81
2022/07/21 04:38:58;;;;;;;14.97;12.37;;;;;;;;;;5035126;28;20802;-81
2022/07/21 04:41:25;;;;;;;13.50;10.98;;;;;;;;;;5025507;28;20439;-82
2022/07/21 04:43:51;;;;;;;12.40;11.10;;;;;;;;;;5031049;28;20430;-80
2022/07/21 04:46:18;;;;;;;16.42;12.68;;;;;;;;;;5036581;28;20434;-82
2022/07/21 04:48:45;;;;;;;16.85;12.70;;;;;;;;;;5036125;28;20493;-83
2022/07/21 04:51:12;;;;;;;15.50;12.93;;;;;;;;;;5036058;28;20946;-81
2022/07/21 04:53:38;;;;;;;14.05;12.68;;;;;;;;;;5041753;28;20432;-81
2022/07/21 04:56:05;;;;;;;15.20;12.35;;;;;;;;;;5037393;28;20438;-84
2022/07/21 04:58:31;;;;;;;14.20;11.30;;;;;;;;;;5040946;28;20433;-81
2022/07/21 05:00:57;;;;;;;13.68;11.32;;;;;;;;;;5040546;28;20431;-81
2022/07/21 05:03:24;;;;;;;12.52;11.18;;;;;;;;;;5043945;28;21228;-82
2022/07/21 05:05:52;;;;;;;11.98;10.68;;;;;;;;;;5038084;28;20796;-81
2022/07/21 05:08:18;;;;;;;13.15;11.50;;;;;;;;;;5039984;28;20441;-86
2022/07/21 05:10:46;;;;;;;12.30;10.90;;;;;;;;;;5022144;28;20423;-82
2022/07/21 05:13:12;;;;;;;14.90;11.52;;;;;;;;;;5023515;28;20453;-83
2022/07/21 05:15:39;;;;;;;13.40;12.00;;;;;;;;;;5042541;28;20420;-84
2022/07/21 05:18:08;;;;;;;16.17;12.10;;;;;;;;;;5042715;28;20443;-81
2022/07/21 05:20:34;;;;;;;13.80;11.33;;;;;;;;;;5038363;28;20425;-81
2022/07/21 05:23:02;;;;;;;13.57;11.60;;;;;;;;;;5042955;28;20407;-83
2022/07/21 05:25:31;;;;;;;14.32;12.68;;;;;;;;;;5041492;28;20460;-83
2022/07/21 05:27:58;;;;;;;15.38;13.13;;;;;;;;;;5037706;28;20427;-84
2022/07/21 05:30:24;;;;;;;17.70;14.05;;;;;;;;;;5032543;28;20439;-80
2022/07/21 05:32:50;;;;;;;14.32;12.75;;;;;;;;;;5042110;28;20427;-83
2022/07/21 05:35:17;;;;;;;13.75;12.00;;;;;;;;;;5040859;28;20427;-83
2022/07/21 05:37:45;;;;;;;17.67;14.30;;;;;;;;;;5039065;28;20481;-84
2022/07/21 05:40:13;;;;;;;16.13;13.52;;;;;;;;;;5036959;28;20813;-84
2022/07/21 05:42:40;;;;;;;14.55;13.00;;;;;;;;;;5037782;28;20441;-85
2022/07/21 05:45:07;;;;;;;15.80;12.00;;;;;;;;;;5039703;28;20423;-82
2022/07/21 05:47:34;;;;;;;15.40;12.00;;;;;;;;;;5040780;28;20428;-82
2022/07/21 05:50:00;;;;;;;13.73;12.30;;;;;;;;;;5041296;28;20920;-82
2022/07/21 05:52:28;;;;;;;16.63;12.38;;;;;;;;;;5039094;28;20430;-85
2022/07/21 05:54:54;;;;;;;15.32;12.07;;;;;;;;;;5017812;28;20425;-82
2022/07/21 05:57:22;;;;;;;16.10;12.38;;;;;;;;;;5033567;28;20429;-83
2022/07/21 05:59:49;;;;;;;14.95;12.27;;;;;;;;;;5042399;28;20419;-82
2022/07/21 06:02:15;;;;;;;16.15;13.55;;;;;;;;;;5041668;28;20421;-83
2022/07/21 06:04:42;;;;;;;14.48;12.52;;;;;;;;;;5038833;28;20944;-82
2022/07/21 06:07:08;;;;;;;14.87;12.50;;;;;;;;;;5043336;28;20415;-84
2022/07/21 06:09:34;;;;;;;16.48;12.80;;;;;;;;;;5037126;28;20410;-82
2022/07/21 06:12:02;;;;;;;17.75;12.43;;;;;;;;;;5022850;28;20475;-81
2022/07/21 06:14:30;;;;;;;19.73;14.32;;;;;;;;;;5040513;28;20419;-83
2022/07/21 06:16:56;;;;;;;18.42;13.00;;;;;;;;;;5038927;28;20432;-83
2022/07/21 06:19:23;;;;;;;20.10;15.18;;;;;;;;;;5041646;28;20414;-83
2022/07/21 06:21:49;;;;;;;16.48;13.90;;;;;;;;;;5020870;28;20439;-82
2022/07/21 06:24:16;;;;;;;20.63;15.32;;;;;;;;;;5039930;28;20471;-82
2022/07/21 06:26:42;;;;;;;19.63;16.05;;;;;;;;;;5039295;28;20453;-90
2022/07/21 06:29:08;;;;;;;17.53;15.63;;;;;;;;;;5042154;28;20424;-83
2022/07/21 06:31:36;;;;;;;19.17;16.23;;;;;;;;;;5038820;28;20432;-82
2022/07/21 06:34:03;;;;;;;23.50;18.25;;;;;;;;;;5040443;28;20435;-82
2022/07/21 06:36:29;;;;;;;22.67;17.95;;;;;;;;;;5043233;28;20413;-82
2022/07/21 06:38:55;;;;;;;21.52;17.50;;;;;;;;;;5042182;28;20484;-83
2022/07/21 06:41:22;;;;;;;25.83;18.67;;;;;;;;;;5038524;28;20421;-85
2022/07/21 06:43:48;;;;;;;25.15;19.33;;;;;;;;;;5041453;28;20913;-83
2022/07/21 06:46:14;;;;;;;23.00;20.50;;;;;;;;;;5040251;28;20423;-83
2022/07/21 06:48:43;;;;;;;21.67;19.38;;;;;;;;;;5040622;28;20913;-82
2022/07/21 06:51:09;;;;;;;25.80;20.50;;;;;;;;;;5039772;28;20412;-83
2022/07/21 06:53:36;;;;;;;22.85;20.55;;;;;;;;;;5040691;28;20425;-80
2022/07/21 06:56:02;;;;;;;29.05;22.02;;;;;;;;;;5034937;28;20484;-86
2022/07/21 06:58:28;;;;;;;27.00;20.55;;;;;;;;;;5038188;28;20438;-82
2022/07/21 07:00:55;;;;;;;28.92;22.65;;;;;;;;;;5035662;28;20426;-81
2022/07/21 07:03:22;;;;;;;26.08;21.80;;;;;;;;;;5036922;28;20431;-84
2022/07/21 07:05:51;;;;;;;25.20;22.50;;;;;;;;;;5038853;28;20423;-83
2022/07/21 07:08:18;;;;;;;24.65;21.10;;;;;;;;;;5035505;28;20439;-84
2022/07/21 07:10:45;;;;;;;26.40;23.60;;;;;;;;;;5039455;28;20920;-83
2022/07/21 07:13:13;;;;;;;25.83;22.42;;;;;;;;;;5040420;28;20432;-82
2022/07/21 07:15:39;;;;;;;28.90;24.30;;;;;;;;;;5040332;28;20498;-82
2022/07/21 07:18:06;;;;;;;29.60;25.33;;;;;;;;;;5038424;28;20417;-83
2022/07/21 07:20:34;;;;;;;33.67;26.48;;;;;;;;;;5039393;28;20780;-86
2022/07/21 07:23:01;;;;;;;30.75;25.08;;;;;;;;;;5038685;28;21274;-84
2022/07/21 07:25:28;;;;;;;30.15;26.25;;;;;;;;;;5035964;28;20422;-85
2022/07/21 07:27:56;;;;;;;31.20;27.20;;;;;;;;;;5037611;28;20840;-85
2022/07/21 07:30:23;;;;;;;31.48;27.20;;;;;;;;;;5034102;28;20938;-84
2022/07/21 07:32:50;;;;;;;25.50;22.20;;;;;;;;;;5038116;28;20422;-83
2022/07/21 07:35:17;;;;;;;27.98;23.65;;;;;;;;;;5036745;28;20421;-84
2022/07/21 07:37:44;;;;;;;29.50;25.85;;;;;;;;;;5038722;28;20414;-83
2022/07/21 07:40:13;;;;;;;24.27;21.70;;;;;;;;;;5032887;28;20423;-83
2022/07/21 07:42:40;;;;;;;24.80;21.85;;;;;;;;;;5037811;28;20836;-83
2022/07/21 07:45:08;;;;;;;23.13;20.67;;;;;;;;;;5034802;28;20417;-84
2022/07/21 07:47:35;;;;;;;24.77;21.67;;;;;;;;;;5038619;28;20961;-85
2022/07/21 07:50:01;;;;;;;24.88;22.20;;;;;;;;;;5038127;28;20424;-83
2022/07/21 07:52:29;;;;;;;23.87;21.07;;;;;;;;;;5038639;28;20410;-84
2022/07/21 07:54:55;;;;;;;22.73;20.33;;;;;;;;;;5004441;28;20426;-82
2022/07/21 07:57:23;;;;;;;23.13;19.55;;;;;;;;;;5038158;28;20904;-82
2022/07/21 07:59:49;;;;;;;24.80;21.27;;;;;;;;;;5038427;28;20413;-84
2022/07/21 08:02:15;;;;;;;23.25;20.55;;;;;;;;;;5040150;28;20429;-83
2022/07/21 08:04:42;;;;;;;21.45;19.05;;;;;;;;;;5036354;28;20431;-82
2022/07/21 08:07:09;;;;;;;20.80;18.60;;;;;;;;;;5040867;28;20421;-83
2022/07/21 08:09:35;;;;;;;22.17;19.88;;;;;;;;;;5037252;28;20407;-82
2022/07/21 08:12:01;;;;;;;22.38;20.08;;;;;;;;;;5038039;28;20421;-84
2022/07/21 08:14:29;;;;;;;22.30;19.50;;;;;;;;;;5038219;28;20417;-82
2022/07/21 08:16:58;;;;;;;20.42;18.23;;;;;;;;;;5036962;28;20423;-84
2022/07/21 08:19:24;;;;;;;22.10;19.50;;;;;;;;;;5038091;28;20461;-83
2022/07/21 08:21:51;;;;;;;21.38;19.08;;;;;;;;;;5021823;28;20425;-83
2022/07/21 08:24:17;;;;;;;21.23;19.13;;;;;;;;;;5038268;28;20406;-85
2022/07/21 08:26:44;;;;;;;21.30;19.05;;;;;;;;;;5038878;28;20419;-83
2022/07/21 08:29:12;;;;;;;20.05;17.92;;;;;;;;;;5041131;28;20426;-82
2022/07/21 08:31:40;;;;;;;20.50;17.73;;;;;;;;;;5042057;28;20433;-84
2022/07/21 08:34:06;;;;;;;19.67;17.67;;;;;;;;;;5040278;28;20952;-82
2022/07/21 08:36:32;;;;;;;19.75;17.75;;;;;;;;;;5043217;28;20436;-84
2022/07/21 08:39:00;;;;;;;19.02;17.05;;;;;;;;;;5042955;28;20933;-83
2022/07/21 08:41:26;;;;;;;18.08;16.25;;;;;;;;;;5041725;28;20441;-83
2022/07/21 08:43:53;;;;;;;16.88;15.27;;;;;;;;;;5043201;28;20416;-83
2022/07/21 08:46:22;;;;;;;17.65;15.88;;;;;;;;;;5038310;28;20450;-83
2022/07/21 08:48:50;;;;;;;17.17;15.48;;;;;;;;;;5042656;28;20414;-84
2022/07/21 08:51:17;;;;;;;16.67;15.02;;;;;;;;;;5025040;28;20411;-83
2022/07/21 08:53:44;;;;;;;17.48;15.88;;;;;;;;;;5042814;28;20552;-85
2022/07/21 08:56:11;;;;;;;17.20;15.20;;;;;;;;;;5041535;28;20434;-83
2022/07/21 08:58:37;;;;;;;16.83;15.13;;;;;;;;;;5042272;28;20413;-84
2022/07/21 09:01:04;;;;;;;17.02;15.23;;;;;;;;;;5041225;28;20479;-85
2022/07/21 09:03:32;;;;;;;18.48;16.67;;;;;;;;;;5040558;28;20440;-84
2022/07/21 09:06:15;;;;;;;16.75;15.07;;;;;;;;;;5043194;28;20889;-84
2022/07/21 09:08:43;;;;;;;17.40;15.70;;;;;;;;;;5034008;28;20435;-82
2022/07/21 09:11:11;;;;;;;17.75;16.02;;;;;;;;;;5042794;28;20431;-84
2022/07/21 09:13:38;;;;;;;17.02;15.32;;;;;;;;;;5042315;28;20425;-83
2022/07/21 09:16:05;;;;;;;17.30;15.60;;;;;;;;;;5035388;28;20415;-85
2022/07/21 09:18:31;;;;;;;17.52;15.93;;;;;;;;;;5020488;28;20486;-83
2022/07/21 09:21:00;;;;;;;17.20;15.60;;;;;;;;;;5038513;28;20416;-84
2022/07/21 09:23:28;;;;;;;17.80;16.00;;;;;;;;;;5042636;28;20433;-85
2022/07/21 09:25:55;;;;;;;15.90;14.48;;;;;;;;;;5038546;28;20431;-82
2022/07/21 09:28:23;;;;;;;17.13;15.52;;;;;;;;;;5040843;28;20422;-82
2022/07/21 09:30:56;;;;;;;16.98;15.38;;;;;;;;;;5041285;28;20512;-83
2022/07/21 09:33:24;;;;;;;17.80;15.98;;;;;;;;;;5041598;28;20413;-82
2022/07/21 09:35:58;;;;;;;16.02;14.63;;;;;;;;;;5042321;28;20410;-84
2022/07/21 09:38:25;;;;;;;16.10;14.60;;;;;;;;;;5037928;28;20970;-83
2022/07/21 09:40:53;;;;;;;15.10;13.60;;;;;;;;;;5038750;28;20419;-82
2022/07/21 09:43:32;;;;;;;14.68;13.32;;;;;;;;;;5038296;28;20946;-84
2022/07/21 09:46:00;;;;;;;15.00;13.60;;;;;;;;;;5025440;28;20431;-82
2022/07/21 09:48:30;;;;;;;16.03;14.57;;;;;;;;;;5041414;28;20901;-83
2022/07/21 09:50:57;;;;;;;15.80;14.20;;;;;;;;;;5038165;28;20425;-83
2022/07/21 09:53:24;;;;;;;16.20;14.80;;;;;;;;;;5039338;28;20424;-82
2022/07/21 09:55:51;;;;;;;16.60;15.00;;;;;;;;;;5032679;28;20439;-82
2022/07/21 09:58:19;;;;;;;17.27;15.68;;;;;;;;;;5032918;28;20997;-84
2022/07/21 10:00:45;;;;;;;14.70;13.40;;;;;;;;;;5036056;28;20427;-84
2022/07/21 10:03:13;;;;;;;15.33;13.93;;;;;;;;;;5033739;28;20433;-84
2022/07/21 10:05:39;;;;;;;14.00;12.80;;;;;;;;;;5041126;28;20425;-83
2022/07/21 10:08:06;;;;;;;15.27;13.77;;;;;;;;;;5041598;28;20441;-82
2022/07/21 10:10:32;;;;;;;13.98;12.68;;;;;;;;;;5037808;28;20443;-84
2022/07/21 10:12:59;;;;;;;15.57;14.18;;;;;;;;;;5039716;28;20425;-84
2022/07/21 10:15:27;;;;;;;14.80;13.40;;;;;;;;;;5039741;28;20447;-83
2022/07/21 10:17:54;;;;;;;14.68;13.48;;;;;;;;;;5040520;28;20419;-82
2022/07/21 10:20:24;;;;;;;15.45;13.95;;;;;;;;;;5039413;28;20506;-85
2022/07/21 10:22:56;;;;;;;17.00;15.45;;;;;;;;;;5025849;28;20425;-81
2022/07/21 10:25:23;;;;;;;16.33;14.82;;;;;;;;;;5038083;28;20423;-81
2022/07/21 10:28:08;;;;;;;14.18;12.80;;;;;;;;;;5039281;28;20441;-83
2022/07/21 10:30:40;;;;;;;13.70;12.40;;;;;;;;;;5039444;28;20426;-89
2022/07/21 10:33:07;;;;;;;14.38;12.88;;;;;;;;;;5025012;28;20417;-82
2022/07/21 10:35:33;;;;;;;14.70;13.30;;;;;;;;;;5040226;28;20413;-83
2022/07/21 10:38:00;;;;;;;14.77;13.38;;;;;;;;;;5041901;28;20786;-83
2022/07/21 10:40:39;;;;;;;15.45;14.15;;;;;;;;;;5040225;28;20792;-82
2022/07/21 10:43:24;;;;;;;16.52;15.02;;;;;;;;;;5035104;28;20478;-83
2022/07/21 10:45:52;;;;;;;17.45;15.75;;;;;;;;;;5010705;28;20425;-83
2022/07/21 10:48:37;;;;;;;17.48;15.80;;;;;;;;;;5037731;28;20420;-82
2022/07/21 10:51:04;;;;;;;18.23;16.50;;;;;;;;;;5039963;28;20430;-82
2022/07/21 10:53:30;;;;;;;17.50;16.00;;;;;;;;;;5040120;28;20422;-83
2022/07/21 10:55:57;;;;;;;17.33;15.73;;;;;;;;;;5013806;28;21147;-83
2022/07/21 10:58:27;;;;;;;17.20;15.80;;;;;;;;;;5028963;28;20439;-84
2022/07/21 11:00:56;;;;;;;17.40;15.65;;;;;;;;;;5038897;28;20430;-83
2022/07/21 11:03:25;;;;;;;19.05;17.15;;;;;;;;;;5036194;28;20795;-82
2022/07/21 11:06:14;;;;;;;17.55;15.77;;;;;;;;;;5017833;28;20512;-83
2022/07/21 11:08:42;;;;;;;17.90;16.30;;;;;;;;;;5035483;28;20540;-84
2022/07/21 11:11:09;;;;;;;16.90;15.50;;;;;;;;;;5033885;28;20439;-83
2022/07/21 11:13:50;;;;;;;16.90;15.40;;;;;;;;;;5041217;28;20808;-84
2022/07/21 11:16:20;;;;;;;16.65;15.25;;;;;;;;;;5047005;28;20417;-84
2022/07/21 11:18:47;;;;;;;16.65;15.25;;;;;;;;;;5042120;28;20413;-80
2022/07/21 11:21:14;;;;;;;16.73;15.13;;;;;;;;;;5036789;28;20420;-82
2022/07/21 11:23:42;;;;;;;16.60;15.10;;;;;;;;;;5035770;28;20520;-82
2022/07/21 11:26:09;;;;;;;16.48;14.98;;;;;;;;;;5037072;28;20439;-85
2022/07/21 11:28:35;;;;;;;16.77;15.38;;;;;;;;;;5036748;28;20428;-82
2022/07/21 11:31:13;;;;;;;15.50;14.20;;;;;;;;;;5033042;28;20444;-82
2022/07/21 11:33:42;;;;;;;15.80;14.40;;;;;;;;;;5037411;28;20814;-81
2022/07/21 11:36:08;;;;;;;15.60;14.10;;;;;;;;;;5036680;28;20423;-85
2022/07/21 11:38:35;;;;;;;15.65;14.30;;;;;;;;;;5032147;28;20438;-84
2022/07/21 11:41:15;;;;;;;15.57;14.20;;;;;;;;;;5037230;28;21608;-81
2022/07/21 11:43:41;;;;;;;16.50;14.90;;;;;;;;;;5037711;28;20432;-81
2022/07/21 11:46:08;;;;;;;15.07;13.75;;;;;;;;;;5037530;28;20417;-82
2022/07/21 11:48:34;;;;;;;15.70;14.30;;;;;;;;;;5006595;28;20403;-81
2022/07/21 11:51:03;;;;;;;16.10;14.60;;;;;;;;;;5036430;28;21192;-82
2022/07/21 11:53:30;;;;;;;16.05;14.57;;;;;;;;;;5037538;28;20480;-80
2022/07/21 11:55:56;;;;;;;15.10;13.70;;;;;;;;;;5033615;28;20787;-83
2022/07/21 11:58:25;;;;;;;15.35;13.95;;;;;;;;;;5018784;28;20943;-82
2022/07/21 12:01:04;;;;;;;14.70;13.20;;;;;;;;;;5037440;28;20429;-81
2022/07/21 12:03:31;;;;;;;15.02;13.70;;;;;;;;;;5042292;28;20498;-81
2022/07/21 12:05:57;;;;;;;13.45;12.25;;;;;;;;;;5041713;28;20418;-83
2022/07/21 12:08:25;;;;;;;14.40;13.10;;;;;;;;;;5026977;28;20424;-82
2022/07/21 12:11:04;;;;;;;13.95;12.65;;;;;;;;;;5040026;28;20425;-81
2022/07/21 12:13:30;;;;;;;14.77;13.38;;;;;;;;;;5025644;28;20432;-82
2022/07/21 12:15:57;;;;;;;13.45;12.15;;;;;;;;;;5040387;28;20430;-80
2022/07/21 12:18:25;;;;;;;13.98;12.68;;;;;;;;;;5043574;28;20416;-82
2022/07/21 12:21:01;;;;;;;12.57;11.47;;;;;;;;;;5039604;28;20912;-82
2022/07/21 12:23:29;;;;;;;12.98;11.63;;;;;;;;;;5042524;28;20531;-82
2022/07/21 12:25:57;;;;;;;13.80;12.60;;;;;;;;;;5038974;28;20425;-80
2022/07/21 12:28:38;;;;;;;14.15;12.85;;;;;;;;;;5040334;28;20905;-81
2022/07/21 12:31:10;;;;;;;13.90;12.52;;;;;;;;;;5035840;28;20422;-81
2022/07/21 12:33:36;;;;;;;14.02;12.65;;;;;;;;;;5042409;28;20442;-81
2022/07/21 12:36:04;;;;;;;15.57;14.17;;;;;;;;;;5040901;28;20584;-84
2022/07/21 12:38:38;;;;;;;14.30;13.00;;;;;;;;;;5041029;28;20447;-81
2022/07/21 12:41:04;;;;;;;15.60;14.20;;;;;;;;;;5041334;28;20461;-81
2022/07/21 12:43:31;;;;;;;16.42;14.90;;;;;;;;;;5039758;28;20526;-80
2022/07/21 12:45:59;;;;;;;15.90;14.40;;;;;;;;;;5039840;28;20426;-80
2022/07/21 12:48:27;;;;;;;15.93;14.43;;;;;;;;;;5039681;28;20428;-80
2022/07/21 12:51:01;;;;;;;18.30;16.40;;;;;;;;;;5038659;28;20436;-80
2022/07/21 12:53:27;;;;;;;17.63;16.03;;;;;;;;;;5039472;28;20463;-80
2022/07/21 12:55:55;;;;;;;17.70;16.00;;;;;;;;;;5039201;28;20423;-81
2022/07/21 12:58:21;;;;;;;18.67;16.98;;;;;;;;;;5040582;28;20422;-81
2022/07/21 13:00:48;;;;;;;16.05;14.45;;;;;;;;;;5017510;28;20503;-79
2022/07/21 13:03:15;;;;;;;14.45;13.15;;;;;;;;;;5040862;28;20438;-83
2022/07/21 13:05:41;;;;;;;13.63;12.35;;;;;;;;;;5041285;28;20423;-82
2022/07/21 13:08:07;;;;;;;13.98;12.60;;;;;;;;;;5041245;28;20429;-80
2022/07/21 13:10:34;;;;;;;15.55;14.10;;;;;;;;;;5030054;28;20458;-81
2022/07/21 13:13:03;;;;;;;15.73;14.32;;;;;;;;;;5034785;28;20438;-82
2022/07/21 13:15:30;;;;;;;15.53;14.03;;;;;;;;;;5041670;28;20782;-80
2022/07/21 13:17:56;;;;;;;17.20;15.50;;;;;;;;;;5019648;28;20441;-83
2022/07/21 13:20:23;;;;;;;18.00;16.50;;;;;;;;;;5038942;28;20434;-82
2022/07/21 13:22:49;;;;;;;17.35;15.77;;;;;;;;;;5041193;28;20420;-81
2022/07/21 13:25:16;;;;;;;18.07;16.17;;;;;;;;;;5034749;28;20423;-81
2022/07/21 13:27:42;;;;;;;18.02;16.27;;;;;;;;;;5020980;28;20426;-81
2022/07/21 13:30:10;;;;;;;18.02;16.30;;;;;;;;;;5041015;28;20425;-80
2022/07/21 13:32:37;;;;;;;19.10;17.20;;;;;;;;;;5023145;28;20936;-82
2022/07/21 13:35:03;;;;;;;16.27;14.75;;;;;;;;;;5038348;28;20434;-80
2022/07/21 13:37:30;;;;;;;18.27;16.50;;;;;;;;;;5037247;28;20435;-80
2022/07/21 13:39:57;;;;;;;17.08;15.48;;;;;;;;;;5039152;28;20425;-80
2022/07/21 13:42:24;;;;;;;16.85;15.23;;;;;;;;;;5040152;28;20437;-80
2022/07/21 13:44:50;;;;;;;17.20;15.65;;;;;;;;;;5038509;28;20416;-80
2022/07/21 13:47:18;;;;;;;15.40;13.95;;;;;;;;;;5040700;28;20926;-80
2022/07/21 13:49:44;;;;;;;17.60;15.80;;;;;;;;;;5042316;28;20417;-84
2022/07/21 13:52:11;;;;;;;17.20;15.50;;;;;;;;;;5040038;28;20415;-81
2022/07/21 13:54:37;;;;;;;17.67;16.08;;;;;;;;;;5039166;28;20440;-81
2022/07/21 13:57:04;;;;;;;17.13;15.52;;;;;;;;;;5037490;28;20436;-79
2022/07/21 13:59:31;;;;;;;19.75;17.80;;;;;;;;;;5040423;28;20924;-80
2022/07/21 14:01:57;;;;;;;21.35;19.25;;;;;;;;;;5036233;28;20435;-80
2022/07/21 14:04:25;;;;;;;20.60;18.55;;;;;;;;;;5041298;28;20418;-81
2022/07/21 14:06:53;;;;;;;20.70;18.50;;;;;;;;;;5034093;28;20904;-80
2022/07/21 14:09:20;;;;;;;17.73;16.03;;;;;;;;;;5038188;28;20417;-83
2022/07/21 14:11:46;;;;;;;16.40;14.90;;;;;;;;;;5040266;28;20832;-80
2022/07/21 14:14:17;;;;;;;14.75;13.43;;;;;;;;;;5040196;28;21298;-79
2022/07/21 14:16:43;;;;;;;15.10;13.60;;;;;;;;;;5036370;28;20966;-79
2022/07/21 14:19:10;;;;;;;14.82;13.32;;;;;;;;;;5037145;28;20435;-80
2022/07/21 14:21:38;;;;;;;14.38;12.88;;;;;;;;;;5038730;28;20919;-81
2022/07/21 14:26:48;;;;;;;15.27;13.75;;;;;;;;;;5035998;28;20416;-80
2022/07/21 14:29:15;;;;;;;14.02;12.65;;;;;;;;;;5021174;28;20425;-81